LNICK ENTO-ENGM
Flight info
| Callsign | LNICK |
|---|---|
| Flight time | N/A |
| Altitude | 5000 |
| Route | BAKIV DCT RIPAM |
| Aircraft | BN2P/L-SFG/C |
Departure
| Time | 2026-05-05 18:53 |
|---|---|
| Airport | Sandefjord Airport, Torp (ENTO) |
Arrival
| Time | N/A |
|---|---|
| Airport | Oslo-Gardermoen International Airport (ENGM) |
| Time | Latitude | Longitude | Altitude | Speed | Heading |
|---|---|---|---|---|---|
| 2026-05-05 18:47 | 59.18469 | 10.25513 | 297 ft | 0 kts | 183° |
| 2026-05-05 18:51 | 59.18460 | 10.25515 | 296 ft | 9 kts | 167° |
| 2026-05-05 18:51 | 59.18442 | 10.25615 | 289 ft | 14 kts | 61° |
| 2026-05-05 18:52 | 59.18507 | 10.25784 | 282 ft | 14 kts | 77° |
| 2026-05-05 18:52 | 59.18475 | 10.25865 | 277 ft | 4 kts | 178° |
| 2026-05-05 18:52 | 59.18474 | 10.25866 | 277 ft | 0 kts | 178° |
| 2026-05-05 18:53 | 59.18449 | 10.25867 | 276 ft | 26 kts | 179° |
| 2026-05-05 18:53 | 59.18081 | 10.25905 | 455 ft | 65 kts | 176° |
| 2026-05-05 18:53 | 59.17628 | 10.26049 | 813 ft | 70 kts | 172° |
| 2026-05-05 18:53 | 59.17145 | 10.26327 | 1147 ft | 79 kts | 155° |
| 2026-05-05 18:54 | 59.16826 | 10.27307 | 1435 ft | 96 kts | 99° |
| 2026-05-05 18:54 | 59.16957 | 10.28514 | 1842 ft | 89 kts | 58° |
| 2026-05-05 18:54 | 59.17382 | 10.29375 | 2095 ft | 101 kts | 28° |
| 2026-05-05 18:54 | 59.18080 | 10.29692 | 2333 ft | 108 kts | 348° |
| 2026-05-05 18:55 | 59.18725 | 10.28982 | 2568 ft | 112 kts | 308° |
| 2026-05-05 18:55 | 59.19105 | 10.27663 | 2800 ft | 114 kts | 297° |
| 2026-05-05 18:55 | 59.19457 | 10.26253 | 3033 ft | 115 kts | 297° |
| 2026-05-05 18:55 | 59.19989 | 10.25129 | 3263 ft | 116 kts | 334° |
| 2026-05-05 18:56 | 59.20789 | 10.25048 | 3497 ft | 121 kts | 12° |
| 2026-05-05 18:56 | 59.21563 | 10.25687 | 3729 ft | 123 kts | 22° |
| 2026-05-05 18:56 | 59.22318 | 10.26471 | 3969 ft | 123 kts | 23° |
| 2026-05-05 18:56 | 59.23076 | 10.27226 | 4224 ft | 122 kts | 22° |
| 2026-05-05 18:57 | 59.23843 | 10.27956 | 4482 ft | 122 kts | 21° |
| 2026-05-05 18:57 | 59.24603 | 10.28657 | 4737 ft | 122 kts | 20° |
| 2026-05-05 18:57 | 59.25382 | 10.29362 | 4920 ft | 127 kts | 20° |
| 2026-05-05 18:57 | 59.26222 | 10.30114 | 4946 ft | 138 kts | 21° |
| 2026-05-05 18:58 | 59.27126 | 10.30920 | 4947 ft | 144 kts | 21° |
| 2026-05-05 18:58 | 59.28033 | 10.31728 | 4946 ft | 145 kts | 20° |
| 2026-05-05 18:58 | 59.28949 | 10.32543 | 4946 ft | 144 kts | 21° |
| 2026-05-05 18:58 | 59.29857 | 10.33348 | 4947 ft | 143 kts | 21° |
| 2026-05-05 18:59 | 59.30763 | 10.34153 | 4948 ft | 143 kts | 20° |
| 2026-05-05 18:59 | 59.31668 | 10.34957 | 4949 ft | 143 kts | 21° |
| 2026-05-05 18:59 | 59.32586 | 10.35773 | 4949 ft | 143 kts | 20° |
| 2026-05-05 18:59 | 59.33488 | 10.36574 | 4948 ft | 143 kts | 20° |
| 2026-05-05 19:00 | 59.34395 | 10.37380 | 4947 ft | 143 kts | 21° |
| 2026-05-05 19:00 | 59.35287 | 10.38174 | 4949 ft | 143 kts | 20° |
| 2026-05-05 19:00 | 59.36197 | 10.38984 | 4950 ft | 143 kts | 21° |
| 2026-05-05 19:00 | 59.37099 | 10.39788 | 4951 ft | 143 kts | 20° |
| 2026-05-05 19:01 | 59.38005 | 10.40595 | 4952 ft | 143 kts | 21° |
| 2026-05-05 19:01 | 59.38906 | 10.41399 | 4952 ft | 143 kts | 20° |
| 2026-05-05 19:01 | 59.39816 | 10.42211 | 4955 ft | 143 kts | 20° |
| 2026-05-05 19:01 | 59.40731 | 10.43029 | 4950 ft | 143 kts | 21° |
| 2026-05-05 19:02 | 59.41637 | 10.43845 | 4957 ft | 143 kts | 21° |
| 2026-05-05 19:02 | 59.42539 | 10.44666 | 4953 ft | 143 kts | 21° |
| 2026-05-05 19:02 | 59.43435 | 10.45489 | 4959 ft | 143 kts | 21° |
| 2026-05-05 19:02 | 59.44346 | 10.46332 | 4960 ft | 143 kts | 22° |
| 2026-05-05 19:03 | 59.45231 | 10.47159 | 4960 ft | 142 kts | 22° |
| 2026-05-05 19:03 | 59.46129 | 10.48007 | 4959 ft | 142 kts | 22° |
| 2026-05-05 19:03 | 59.47020 | 10.48856 | 4959 ft | 141 kts | 22° |
| 2026-05-05 19:03 | 59.47904 | 10.49705 | 4964 ft | 142 kts | 23° |
| 2026-05-05 19:04 | 59.48786 | 10.50559 | 4960 ft | 142 kts | 22° |
| 2026-05-05 19:04 | 59.49680 | 10.51433 | 4957 ft | 141 kts | 22° |
| 2026-05-05 19:04 | 59.50566 | 10.52299 | 4957 ft | 144 kts | 22° |
| 2026-05-05 19:04 | 59.51471 | 10.53192 | 4962 ft | 146 kts | 23° |
| 2026-05-05 19:05 | 59.52361 | 10.54067 | 4955 ft | 141 kts | 22° |
| 2026-05-05 19:05 | 59.53225 | 10.54925 | 4954 ft | 138 kts | 23° |
| 2026-05-05 19:05 | 59.54082 | 10.55786 | 4952 ft | 138 kts | 23° |
| 2026-05-05 19:05 | 59.54937 | 10.56650 | 4952 ft | 138 kts | 24° |
| 2026-05-05 19:06 | 59.55784 | 10.57516 | 4952 ft | 138 kts | 24° |
| 2026-05-05 19:06 | 59.56640 | 10.58398 | 4948 ft | 138 kts | 24° |
| 2026-05-05 19:06 | 59.57494 | 10.59288 | 4950 ft | 138 kts | 24° |
| 2026-05-05 19:06 | 59.58398 | 10.59902 | 4951 ft | 136 kts | 10° |
| 2026-05-05 19:07 | 59.59316 | 10.60333 | 4949 ft | 135 kts | 11° |
| 2026-05-05 19:07 | 59.60220 | 10.60861 | 4951 ft | 135 kts | 15° |
| 2026-05-05 19:07 | 59.61096 | 10.61487 | 4953 ft | 135 kts | 18° |
| 2026-05-05 19:07 | 59.61968 | 10.62210 | 4953 ft | 135 kts | 20° |
| 2026-05-05 19:08 | 59.62827 | 10.62953 | 4950 ft | 135 kts | 20° |
| 2026-05-05 19:08 | 59.63691 | 10.63717 | 4953 ft | 136 kts | 21° |
| 2026-05-05 19:08 | 59.64544 | 10.64479 | 4947 ft | 136 kts | 21° |
| 2026-05-05 19:08 | 59.65413 | 10.65262 | 4947 ft | 136 kts | 22° |
| 2026-05-05 19:09 | 59.66272 | 10.66041 | 4945 ft | 136 kts | 22° |
| 2026-05-05 19:09 | 59.67137 | 10.66825 | 4944 ft | 136 kts | 22° |
| 2026-05-05 19:09 | 59.67996 | 10.67605 | 4944 ft | 136 kts | 22° |
| 2026-05-05 19:09 | 59.68855 | 10.68386 | 4946 ft | 136 kts | 22° |
| 2026-05-05 19:10 | 59.69714 | 10.69168 | 4947 ft | 136 kts | 22° |
| 2026-05-05 19:10 | 59.70570 | 10.69946 | 4946 ft | 135 kts | 22° |
| 2026-05-05 19:10 | 59.71427 | 10.70727 | 4948 ft | 135 kts | 22° |
| 2026-05-05 19:10 | 59.72286 | 10.71510 | 4943 ft | 135 kts | 22° |
| 2026-05-05 19:11 | 59.73137 | 10.72284 | 4941 ft | 135 kts | 22° |
| 2026-05-05 19:11 | 59.73998 | 10.73069 | 4937 ft | 135 kts | 22° |
| 2026-05-05 19:11 | 59.74848 | 10.73844 | 4932 ft | 135 kts | 22° |
| 2026-05-05 19:11 | 59.75629 | 10.74882 | 4931 ft | 136 kts | 36° |
| 2026-05-05 19:12 | 59.76398 | 10.75970 | 4928 ft | 136 kts | 31° |
| 2026-05-05 19:12 | 59.77200 | 10.77011 | 4927 ft | 137 kts | 31° |
| 2026-05-05 19:12 | 59.77993 | 10.78055 | 4927 ft | 137 kts | 32° |
| 2026-05-05 19:12 | 59.78785 | 10.79112 | 4927 ft | 137 kts | 31° |
| 2026-05-05 19:13 | 59.79578 | 10.80178 | 4824 ft | 142 kts | 32° |
| 2026-05-05 19:13 | 59.80392 | 10.81275 | 4562 ft | 139 kts | 32° |
| 2026-05-05 19:13 | 59.81181 | 10.82340 | 4306 ft | 137 kts | 32° |
| 2026-05-05 19:13 | 59.81967 | 10.83406 | 4045 ft | 136 kts | 32° |
| 2026-05-05 19:14 | 59.82756 | 10.84476 | 3782 ft | 136 kts | 33° |
| 2026-05-05 19:14 | 59.83530 | 10.85530 | 3527 ft | 136 kts | 33° |
| 2026-05-05 19:14 | 59.84308 | 10.86589 | 3269 ft | 136 kts | 33° |
| 2026-05-05 19:14 | 59.85075 | 10.87668 | 3096 ft | 132 kts | 36° |
| 2026-05-05 19:15 | 59.85754 | 10.88876 | 2909 ft | 132 kts | 51° |
| 2026-05-05 19:15 | 59.86282 | 10.90384 | 2743 ft | 130 kts | 58° |
| 2026-05-05 19:15 | 59.86736 | 10.91915 | 2643 ft | 128 kts | 60° |
| 2026-05-05 19:15 | 59.87202 | 10.93472 | 2514 ft | 130 kts | 60° |
| 2026-05-05 19:16 | 59.87665 | 10.95013 | 2402 ft | 129 kts | 60° |
| 2026-05-05 19:16 | 59.88107 | 10.96533 | 2358 ft | 123 kts | 62° |
| 2026-05-05 19:16 | 59.88499 | 10.98038 | 2309 ft | 119 kts | 64° |
| 2026-05-05 19:16 | 59.88815 | 10.99505 | 2268 ft | 112 kts | 68° |
| 2026-05-05 19:17 | 59.89086 | 11.00851 | 2289 ft | 99 kts | 66° |
| 2026-05-05 19:17 | 59.89300 | 11.01921 | 2239 ft | 70 kts | 66° |
| 2026-05-05 19:17 | 59.89469 | 11.02823 | 2211 ft | 66 kts | 71° |
| 2026-05-05 19:17 | 59.89616 | 11.03660 | 2138 ft | 63 kts | 69° |
| 2026-05-05 19:18 | 59.89795 | 11.04448 | 2070 ft | 63 kts | 62° |
| 2026-05-05 19:18 | 59.90042 | 11.05209 | 1968 ft | 67 kts | 57° |
| 2026-05-05 19:18 | 59.90317 | 11.05940 | 1870 ft | 65 kts | 54° |
| 2026-05-05 19:18 | 59.90601 | 11.06654 | 1760 ft | 66 kts | 50° |
| 2026-05-05 19:19 | 59.90924 | 11.07314 | 1631 ft | 66 kts | 41° |
| 2026-05-05 19:19 | 59.91283 | 11.07870 | 1494 ft | 66 kts | 31° |
| 2026-05-05 19:19 | 59.91666 | 11.08333 | 1365 ft | 62 kts | 26° |
| 2026-05-05 19:19 | 59.92051 | 11.08661 | 1240 ft | 59 kts | 14° |
| 2026-05-05 19:20 | 59.92447 | 11.08837 | 1148 ft | 56 kts | 10° |
| 2026-05-05 19:20 | 59.92822 | 11.08950 | 1101 ft | 54 kts | 3° |
| 2026-05-05 19:20 | 59.93195 | 11.08979 | 1050 ft | 54 kts | 360° |
| 2026-05-05 19:20 | 59.93567 | 11.08978 | 1021 ft | 52 kts | 358° |
| 2026-05-05 19:21 | 59.93915 | 11.08932 | 1011 ft | 50 kts | 352° |
| 2026-05-05 19:21 | 59.94250 | 11.08837 | 1007 ft | 47 kts | 347° |
| 2026-05-05 19:21 | 59.94580 | 11.08686 | 991 ft | 48 kts | 345° |
| 2026-05-05 19:21 | 59.94905 | 11.08489 | 983 ft | 48 kts | 337° |
| 2026-05-05 19:22 | 59.95202 | 11.08187 | 964 ft | 48 kts | 324° |
| 2026-05-05 19:22 | 59.95477 | 11.07812 | 948 ft | 48 kts | 321° |
| 2026-05-05 19:22 | 59.95731 | 11.07363 | 901 ft | 51 kts | 311° |
| 2026-05-05 19:22 | 59.95973 | 11.06827 | 830 ft | 54 kts | 307° |
| 2026-05-05 19:23 | 59.96204 | 11.06217 | 710 ft | 56 kts | 302° |
| 2026-05-05 19:23 | 59.96418 | 11.05573 | 551 ft | 56 kts | 304° |
| 2026-05-05 19:23 | 59.96625 | 11.04929 | 400 ft | 52 kts | 306° |
| 2026-05-05 19:23 | 59.96795 | 11.04407 | 358 ft | 36 kts | 301° |
| 2026-05-05 19:24 | 59.96845 | 11.04251 | 356 ft | 0 kts | 300° |